Cape Express — HO5337 — position and weather

sailwx.info

Track history (hours):
 
Tides and Currents Weather Stations Pressure Air Temp Water Temp Dewpoint Dewpoint Depression Visibility Wind Speed Wind Dir Waves Ship Positions

Cape Express

Last reported at 2014-Jul-22 22:30 UTC. Time now 2014-Jul-25 06:46 UTC.
Position N 26°06' W 079°23'.

Length 29 m; draft 2.2 m.

Type: Cargo ship. MMSI: 370269000.

Date/timePositionNaut miles runAvg speedWind from/ knotsBaromVisibWave heightAir tempDewpointWater temp
2014-Jul-22 22:30N 26°06' W 079°23'9 9.8
2014-Jul-22 21:33N 26°06' W 079°34'10 9.8
2014-Jul-22 20:33N 26°06' W 079°44'1010.2
2014-Jul-22 19:33N 26°05' W 079°56'10 9.9
2014-Jul-22 18:33N 26°06' W 080°07'2 2.0
2014-Jul-22 17:33N 26°04' W 080°08'0 0.0
2014-Jul-22 16:33N 26°04' W 080°08'0 0.0
2014-Jul-22 15:33N 26°04' W 080°08'0 0.0
2014-Jul-22 14:33N 26°04' W 080°08'0 0.0
2014-Jul-22 13:33N 26°04' W 080°08'2 1.5
2014-Jul-22 12:33N 26°05' W 080°07'9 9.0
2014-Jul-22 11:33N 26°03' W 079°57'1010.5
2014-Jul-22 10:33N 26°00' W 079°46'1110.8
2014-Jul-22 09:33N 25°57' W 079°34'30 0.7
2014-Jul-20 17:09N 26°27' W 079°38'711.5
2014-Jul-20 16:33N 26°22' W 079°44'1111.4
2014-Jul-20 15:33N 26°14' W 079°53'1111.0
2014-Jul-20 14:33N 26°07' W 080°03'6 5.9
2014-Jul-20 13:33N 26°04' W 080°08'0 0.0
2014-Jul-20 12:33N 26°04' W 080°08'0 0.0
2014-Jul-20 11:33N 26°04' W 080°08'0 0.0
2014-Jul-20 10:33N 26°04' W 080°08'0 0.0
2014-Jul-20 09:33N 26°04' W 080°08'0 0.0
2014-Jul-20 08:33N 26°04' W 080°08'0 0.0
2014-Jul-20 07:33N 26°04' W 080°08'0 0.0
2014-Jul-20 06:33N 26°04' W 080°08'0 0.0
2014-Jul-20 05:33N 26°04' W 080°08'0 0.0
2014-Jul-20 04:33N 26°04' W 080°08'0 0.0
2014-Jul-20 03:33N 26°04' W 080°08'0 0.0
2014-Jul-20 02:33N 26°04' W 080°08'0 0.0
2014-Jul-20 01:33N 26°04' W 080°08'0 0.0
2014-Jul-20 00:33N 26°04' W 080°08'0 0.0
2014-Jul-19 23:33N 26°04' W 080°08'0 0.0
2014-Jul-19 22:33N 26°04' W 080°08'0 0.0
2014-Jul-19 21:33N 26°04' W 080°08'0 0.0
2014-Jul-19 20:33N 26°04' W 080°08'0 0.0
2014-Jul-19 19:33N 26°04' W 080°08'0 0.0
2014-Jul-19 18:33N 26°04' W 080°08'0 0.0
2014-Jul-19 17:33N 26°04' W 080°08'0 0.0
2014-Jul-19 16:33N 26°04' W 080°08'0 0.0
2014-Jul-19 15:33N 26°04' W 080°08'0 0.0
2014-Jul-19 14:33N 26°04' W 080°08'0 0.0
2014-Jul-19 13:33N 26°04' W 080°08'0 0.0
2014-Jul-19 12:33N 26°04' W 080°08'0 0.0
2014-Jul-19 11:33N 26°04' W 080°08'0 0.0
2014-Jul-19 10:33N 26°04' W 080°08'0 0.0
2014-Jul-19 09:33N 26°04' W 080°08'0 0.0
2014-Jul-19 08:33N 26°04' W 080°08'0 0.0
2014-Jul-19 07:33N 26°04' W 080°08'0 0.0
2014-Jul-19 06:33N 26°04' W 080°08'0 0.0
2014-Jul-19 05:33N 26°04' W 080°08'0 0.0
2014-Jul-19 04:33N 26°04' W 080°08'0 0.0
2014-Jul-19 03:33N 26°04' W 080°08'0 0.0
2014-Jul-19 02:33N 26°04' W 080°08'0 0.0
2014-Jul-19 01:33N 26°04' W 080°08'0 0.0
2014-Jul-19 00:33N 26°04' W 080°08'0 0.0
2014-Jul-18 23:33N 26°04' W 080°08'0 0.0
2014-Jul-18 22:33N 26°04' W 080°08'0 0.0
2014-Jul-18 21:33N 26°04' W 080°08'0 0.0
2014-Jul-18 20:33N 26°04' W 080°08'0 0.0
2014-Jul-18 19:33N 26°04' W 080°08'0 0.0
2014-Jul-18 18:33N 26°04' W 080°08'0 0.0
2014-Jul-18 17:33N 26°04' W 080°08'0 0.0
2014-Jul-18 16:33N 26°04' W 080°08'0 0.0
2014-Jul-18 15:33N 26°04' W 080°08'0 0.0
2014-Jul-18 14:33N 26°04' W 080°08'0 0.0
2014-Jul-18 13:33N 26°04' W 080°08'0 0.0
2014-Jul-18 12:33N 26°04' W 080°08'0 0.0
2014-Jul-18 11:33N 26°04' W 080°08'0 0.0
2014-Jul-18 10:33N 26°04' W 080°08'0 0.0
2014-Jul-18 09:33N 26°04' W 080°08'0 0.0
2014-Jul-18 08:33N 26°04' W 080°08'0 0.0
2014-Jul-18 07:33N 26°04' W 080°08'0 0.0
2014-Jul-18 06:33N 26°04' W 080°08'0 0.0
2014-Jul-18 05:33N 26°04' W 080°08'0 0.0
2014-Jul-18 04:33N 26°04' W 080°08'0 0.0
2014-Jul-18 03:33N 26°04' W 080°08'0 0.0
2014-Jul-18 02:33N 26°04' W 080°08'0 0.0
2014-Jul-18 01:33N 26°04' W 080°08'0 0.0
2014-Jul-18 00:33N 26°04' W 080°08'0 0.0
2014-Jul-17 23:33N 26°04' W 080°08'0 0.0
2014-Jul-17 22:33N 26°04' W 080°08'0 0.0
2014-Jul-17 21:33N 26°04' W 080°08'0 0.0
2014-Jul-17 20:33N 26°04' W 080°08'0 0.0
2014-Jul-17 19:33N 26°04' W 080°08'0 0.0
2014-Jul-17 18:33N 26°04' W 080°08'2 2.3
2014-Jul-17 17:33N 26°06' W 080°06'8 7.7
2014-Jul-17 16:33N 26°04' W 079°58'1010.3
2014-Jul-17 15:33N 26°01' W 079°47'1010.3
2014-Jul-17 14:33N 25°58' W 079°36'19 0.5
2014-Jul-15 23:14N 26°07' W 079°17'811.0
2014-Jul-15 22:33N 26°06' W 079°25'1010.4
2014-Jul-15 21:33N 26°06' W 079°37'1010.1
2014-Jul-15 20:33N 26°06' W 079°48'1010.2
2014-Jul-15 19:33N 26°06' W 079°59'8 7.9
2014-Jul-15 18:33N 26°04' W 080°08'0 0.1
2014-Jul-15 17:33N 26°04' W 080°08'0 0.0
2014-Jul-15 16:33N 26°04' W 080°08'0 0.0
2014-Jul-15 15:33N 26°04' W 080°08'0 0.0
2014-Jul-15 14:33N 26°04' W 080°08'0 0.0
2014-Jul-15 13:33N 26°04' W 080°08'4 3.6
2014-Jul-15 12:33N 26°05' W 080°04'10 9.9
2014-Jul-15 11:33N 26°03' W 079°54'1010.2
2014-Jul-15 10:33N 25°60' W 079°43'1010.1
2014-Jul-15 09:32N 25°57' W 079°32'15 0.3
2014-Jul-13 06:30N 26°07' W 079°19'8 8.7
2014-Jul-13 05:33N 26°06' W 079°29'9 8.8
2014-Jul-13 04:33N 26°06' W 079°38'9 8.8
2014-Jul-13 03:33N 26°06' W 079°48'9 9.2
2014-Jul-13 02:33N 26°06' W 079°58'8 7.8
2014-Jul-13 01:33N 26°04' W 080°07'1 0.9
2014-Jul-13 00:26N 26°04' W 080°08'0 0.0
2014-Jul-12 23:26N 26°04' W 080°08'  
Track history (hours):
 
Tides and Currents Weather Stations Pressure Air Temp Water Temp Dewpoint Dewpoint Depression Visibility Wind Speed Wind Dir Waves Ship Positions

Cape Express

Last reported at 2014-Jul-22 22:30 UTC. Time now 2014-Jul-25 06:46 UTC.
Position N 26°06' W 079°23'.

Length 29 m; draft 2.2 m.

Type: Cargo ship. MMSI: 370269000.

Date/timePositionNaut miles runAvg speedWind from/ knotsBaromVisibWave heightAir tempDewpointWater temp
2014-Jul-22 22:30N 26°06' W 079°23'9 9.8
2014-Jul-22 21:33N 26°06' W 079°34'10 9.8
2014-Jul-22 20:33N 26°06' W 079°44'1010.2
2014-Jul-22 19:33N 26°05' W 079°56'10 9.9
2014-Jul-22 18:33N 26°06' W 080°07'2 2.0
2014-Jul-22 17:33N 26°04' W 080°08'0 0.0
2014-Jul-22 16:33N 26°04' W 080°08'0 0.0
2014-Jul-22 15:33N 26°04' W 080°08'0 0.0
2014-Jul-22 14:33N 26°04' W 080°08'0 0.0
2014-Jul-22 13:33N 26°04' W 080°08'2 1.5
2014-Jul-22 12:33N 26°05' W 080°07'9 9.0
2014-Jul-22 11:33N 26°03' W 079°57'1010.5
2014-Jul-22 10:33N 26°00' W 079°46'1110.8
2014-Jul-22 09:33N 25°57' W 079°34'30 0.7
2014-Jul-20 17:09N 26°27' W 079°38'711.5
2014-Jul-20 16:33N 26°22' W 079°44'1111.4
2014-Jul-20 15:33N 26°14' W 079°53'1111.0
2014-Jul-20 14:33N 26°07' W 080°03'6 5.9
2014-Jul-20 13:33N 26°04' W 080°08'0 0.0
2014-Jul-20 12:33N 26°04' W 080°08'0 0.0
2014-Jul-20 11:33N 26°04' W 080°08'0 0.0
2014-Jul-20 10:33N 26°04' W 080°08'0 0.0
2014-Jul-20 09:33N 26°04' W 080°08'0 0.0
2014-Jul-20 08:33N 26°04' W 080°08'0 0.0
2014-Jul-20 07:33N 26°04' W 080°08'0 0.0
2014-Jul-20 06:33N 26°04' W 080°08'0 0.0
2014-Jul-20 05:33N 26°04' W 080°08'0 0.0
2014-Jul-20 04:33N 26°04' W 080°08'0 0.0
2014-Jul-20 03:33N 26°04' W 080°08'0 0.0
2014-Jul-20 02:33N 26°04' W 080°08'0 0.0
2014-Jul-20 01:33N 26°04' W 080°08'0 0.0
2014-Jul-20 00:33N 26°04' W 080°08'0 0.0
2014-Jul-19 23:33N 26°04' W 080°08'0 0.0
2014-Jul-19 22:33N 26°04' W 080°08'0 0.0
2014-Jul-19 21:33N 26°04' W 080°08'0 0.0
2014-Jul-19 20:33N 26°04' W 080°08'0 0.0
2014-Jul-19 19:33N 26°04' W 080°08'0 0.0
2014-Jul-19 18:33N 26°04' W 080°08'0 0.0
2014-Jul-19 17:33N 26°04' W 080°08'0 0.0
2014-Jul-19 16:33N 26°04' W 080°08'0 0.0
2014-Jul-19 15:33N 26°04' W 080°08'0 0.0
2014-Jul-19 14:33N 26°04' W 080°08'0 0.0
2014-Jul-19 13:33N 26°04' W 080°08'0 0.0
2014-Jul-19 12:33N 26°04' W 080°08'0 0.0
2014-Jul-19 11:33N 26°04' W 080°08'0 0.0
2014-Jul-19 10:33N 26°04' W 080°08'0 0.0
2014-Jul-19 09:33N 26°04' W 080°08'0 0.0
2014-Jul-19 08:33N 26°04' W 080°08'0 0.0
2014-Jul-19 07:33N 26°04' W 080°08'0 0.0
2014-Jul-19 06:33N 26°04' W 080°08'0 0.0
2014-Jul-19 05:33N 26°04' W 080°08'0 0.0
2014-Jul-19 04:33N 26°04' W 080°08'0 0.0
2014-Jul-19 03:33N 26°04' W 080°08'0 0.0
2014-Jul-19 02:33N 26°04' W 080°08'0 0.0
2014-Jul-19 01:33N 26°04' W 080°08'0 0.0
2014-Jul-19 00:33N 26°04' W 080°08'0 0.0
2014-Jul-18 23:33N 26°04' W 080°08'0 0.0
2014-Jul-18 22:33N 26°04' W 080°08'0 0.0
2014-Jul-18 21:33N 26°04' W 080°08'0 0.0
2014-Jul-18 20:33N 26°04' W 080°08'0 0.0
2014-Jul-18 19:33N 26°04' W 080°08'0 0.0
2014-Jul-18 18:33N 26°04' W 080°08'0 0.0
2014-Jul-18 17:33N 26°04' W 080°08'0 0.0
2014-Jul-18 16:33N 26°04' W 080°08'0 0.0
2014-Jul-18 15:33N 26°04' W 080°08'0 0.0
2014-Jul-18 14:33N 26°04' W 080°08'0 0.0
2014-Jul-18 13:33N 26°04' W 080°08'0 0.0
2014-Jul-18 12:33N 26°04' W 080°08'0 0.0
2014-Jul-18 11:33N 26°04' W 080°08'0 0.0
2014-Jul-18 10:33N 26°04' W 080°08'0 0.0
2014-Jul-18 09:33N 26°04' W 080°08'0 0.0
2014-Jul-18 08:33N 26°04' W 080°08'0 0.0
2014-Jul-18 07:33N 26°04' W 080°08'0 0.0
2014-Jul-18 06:33N 26°04' W 080°08'0 0.0
2014-Jul-18 05:33N 26°04' W 080°08'0 0.0
2014-Jul-18 04:33N 26°04' W 080°08'0 0.0
2014-Jul-18 03:33N 26°04' W 080°08'0 0.0
2014-Jul-18 02:33N 26°04' W 080°08'0 0.0
2014-Jul-18 01:33N 26°04' W 080°08'0 0.0
2014-Jul-18 00:33N 26°04' W 080°08'0 0.0
2014-Jul-17 23:33N 26°04' W 080°08'0 0.0
2014-Jul-17 22:33N 26°04' W 080°08'0 0.0
2014-Jul-17 21:33N 26°04' W 080°08'0 0.0
2014-Jul-17 20:33N 26°04' W 080°08'0 0.0
2014-Jul-17 19:33N 26°04' W 080°08'0 0.0
2014-Jul-17 18:33N 26°04' W 080°08'2 2.3
2014-Jul-17 17:33N 26°06' W 080°06'8 7.7
2014-Jul-17 16:33N 26°04' W 079°58'1010.3
2014-Jul-17 15:33N 26°01' W 079°47'1010.3
2014-Jul-17 14:33N 25°58' W 079°36'19 0.5
2014-Jul-15 23:14N 26°07' W 079°17'811.0
2014-Jul-15 22:33N 26°06' W 079°25'1010.4
2014-Jul-15 21:33N 26°06' W 079°37'1010.1
2014-Jul-15 20:33N 26°06' W 079°48'1010.2
2014-Jul-15 19:33N 26°06' W 079°59'8 7.9
2014-Jul-15 18:33N 26°04' W 080°08'0 0.1
2014-Jul-15 17:33N 26°04' W 080°08'0 0.0
2014-Jul-15 16:33N 26°04' W 080°08'0 0.0
2014-Jul-15 15:33N 26°04' W 080°08'0 0.0
2014-Jul-15 14:33N 26°04' W 080°08'0 0.0
2014-Jul-15 13:33N 26°04' W 080°08'4 3.6
2014-Jul-15 12:33N 26°05' W 080°04'10 9.9
2014-Jul-15 11:33N 26°03' W 079°54'1010.2
2014-Jul-15 10:33N 25°60' W 079°43'1010.1
2014-Jul-15 09:32N 25°57' W 079°32'15 0.3
2014-Jul-13 06:30N 26°07' W 079°19'8 8.7
2014-Jul-13 05:33N 26°06' W 079°29'9 8.8
2014-Jul-13 04:33N 26°06' W 079°38'9 8.8
2014-Jul-13 03:33N 26°06' W 079°48'9 9.2
2014-Jul-13 02:33N 26°06' W 079°58'8 7.8
2014-Jul-13 01:33N 26°04' W 080°07'1 0.9
2014-Jul-13 00:26N 26°04' W 080°08'0 0.0
2014-Jul-12 23:26N 26°04' W 080°08'  

Dump ship's entire track history